Dayton, OH (45400)

5:26 PM EDT on October 01, 2016 (GMT -0400)
Sinclair Dayton Campus | | Change Station

Elev 780 ft 39.76 °N, 84.20 °W | Updated 8 seconds ago

Partly Cloudy
Partly Cloudy
67.9 °F
Feels Like 67.9 °F
N
12.7
Wind Variable Wind from West
Gusts 12.7 mph

Today
High -- | Low -- °F
--% Chance of Precip.
Yesterday
High -- | Low -- °F
Precip. -- in
Pressure 30.01 in
Visibility 10.0 miles
Clouds Few 3700 ft
Dew Point 54 °F
Humidity 60%
Rainfall 0.00 in
Snow Depth Not available.
7:33 AM 7:18 PM
New Moon, 1% visible
METAR KFFO 012058Z 21007KT 10SM FEW037 20/11 A3000 RMK AO2A SLP160 T01950105 56007
Pressure 30.01 in
Visibility 10.0 miles
Clouds Few 3700 ft
Dew Point 54 °F
Humidity 60%
Rainfall 0.00 in
Snow Depth Not available.
7:33 AM 7:18 PM
New Moon, 1% visible
METAR KFFO 012058Z 21007KT 10SM FEW037 20/11 A3000 RMK AO2A SLP160 T01950105 56007

10-Day Weather Forecast

Almanac

Astronomy

Oct. 01, 2016 Rise Set
Actual Time
Civil Twilight
Nautical Twilight
Astronomical Twilight
Moon
Length of Visible Light
Length of Day
Tomorrow will be .
, % of the Moon is Illuminated

Today's Extremes

State Highs State Lows

Community

WunderPhotos

Upload Photos

1,943,026 photos uploaded!

WunderBlog® & News

Nearby

Air Quality

  Air Quality AQ Index Pollutant
Not available.

Snow Depth

Station Depth Elevation

Earthquake Activity

City Distance Mag. Time & Date
Minimum magnitude displayed is 2.5.

Coastal Water Temperatures

Place Temperature

Stations

Nearby Weather Stations

Station Location Temp. Windchill Dew Point Humidity Wind Precip. Elev Updated Type
                   

Watches & Warnings

There are currently no watches in effect.